TimeEDT,TemperatureF,Dew PointF,Humidity,Sea Level PressureIn,VisibilityMPH,Wind Direction,Wind SpeedMPH,Gust SpeedMPH,PrecipitationIn,Events,Conditions,WindDirDegrees,DateUTC
12:56 AM,45.0,30.0,56,29.68,10.0,NNW,10.4,-,N/A,,Clear,330,2012-04-05 04:56:00
1:56 AM,43.0,30.0,60,29.69,10.0,NW,10.4,-,N/A,,Clear,320,2012-04-05 05:56:00
2:56 AM,42.1,30.0,62,29.70,10.0,NNW,9.2,-,N/A,,Clear,330,2012-04-05 06:56:00
3:56 AM,39.9,30.0,68,29.71,10.0,NNW,8.1,-,N/A,,Clear,340,2012-04-05 07:56:00
4:56 AM,39.9,28.9,65,29.73,10.0,NW,4.6,-,N/A,,Clear,320,2012-04-05 08:56:00
5:56 AM,37.9,28.9,70,29.74,10.0,NNW,8.1,-,N/A,,Clear,330,2012-04-05 09:56:00
6:56 AM,39.0,30.0,70,29.75,10.0,NW,10.4,-,N/A,,Clear,320,2012-04-05 10:56:00
7:56 AM,43.0,30.0,60,29.77,10.0,NW,8.1,-,N/A,,Clear,310,2012-04-05 11:56:00
8:56 AM,46.0,27.0,47,29.78,10.0,NNW,12.7,20.7,N/A,,Clear,330,2012-04-05 12:56:00
9:56 AM,48.0,27.0,44,29.78,10.0,North,13.8,-,N/A,,Clear,360,2012-04-05 13:56:00
10:56 AM,48.9,27.0,43,29.80,10.0,Variable,4.6,-,N/A,,Partly Cloudy,0,2012-04-05 14:56:00
11:56 AM,51.1,27.0,39,29.80,10.0,North,8.1,-,N/A,,Scattered Clouds,360,2012-04-05 15:56:00
12:56 PM,51.1,26.1,38,29.79,10.0,Variable,6.9,-,N/A,,Mostly Cloudy,0,2012-04-05 16:56:00
1:56 PM,53.1,27.0,37,29.78,10.0,NW,10.4,17.3,N/A,,Scattered Clouds,320,2012-04-05 17:56:00
2:56 PM,53.1,26.1,35,29.78,10.0,North,11.5,18.4,N/A,,Mostly Cloudy,10,2012-04-05 18:56:00
3:56 PM,50.0,33.1,52,29.77,10.0,SW,10.4,-,N/A,,Mostly Cloudy,220,2012-04-05 19:56:00
4:56 PM,54.0,26.1,34,29.78,10.0,NNW,8.1,-,N/A,,Mostly Cloudy,340,2012-04-05 20:56:00
5:56 PM,53.1,27.0,37,29.79,10.0,NNW,6.9,18.4,N/A,,Clear,330,2012-04-05 21:56:00
6:56 PM,50.0,24.1,36,29.81,10.0,North,6.9,-,N/A,,Clear,350,2012-04-05 22:56:00
7:56 PM,46.9,24.1,41,29.83,10.0,NNW,4.6,-,N/A,,Clear,330,2012-04-05 23:56:00
8:56 PM,46.4,24.8,43,29.85,10.0,NW,8.1,-,N/A,,Clear,320,2012-04-06 00:56:00
9:56 PM,42.1,25.0,51,29.87,10.0,NNW,6.9,-,N/A,,Clear,330,2012-04-06 01:56:00
10:56 PM,42.1,25.0,51,29.88,10.0,NNW,4.6,-,N/A,,Clear,340,2012-04-06 02:56:00
11:56 PM,41.0,24.8,53,29.91,10.0,North,9.2,-,N/A,,Clear,10,2012-04-06 03:56:00